KIAG/IAG METAR and TAF weather

Enter ICAO airport designator
Station Type Date Time Source
KIAG METAR 2021/03/03 21:53 UTC NOAA

KIAG 032153Z 22010KT 10SM FEW038 OVC055 04/M01 A2986 RMK AO2 SLP124 T00441006


Station Type Date Time Source
KIAG Decoded METAR 2021/03/03 21:53 UTC NOAA

NIAGARA FALLS INTERNATIONAL AIRPORT, NY, United States (KIAG) 43-07N 078-56W 182M
Mar 03, 2021 - 04:53 PM EST / 2021.03.03 2153 UTC
Wind: from the SW (220 degrees) at 12 MPH (10 KT):0
Visibility: 10 mile(s):0
Sky conditions: overcast
Temperature: 39.9 F (4.4 C)
Dew Point: 30.9 F (-0.6 C)
Relative Humidity: 69%
Pressure (altimeter): 29.86 in. Hg (1011 hPa)
ob: KIAG 032153Z 22010KT 10SM FEW038 OVC055 04/M01 A2986 RMK AO2 SLP124 T00441006
cycle: 22

Station Type Date Time Source
KIAG TAF 2021/03/03 21:36 UTC NOAA

TAF
AMD KIAG 032033Z 0321/0418 24012KT P6SM BKN035
FM032200 25008KT P6SM BKN025
FM040400 31010KT P6SM BKN025
FM041500 33012G18KT P6SM SCT040

Example: see airport list